createdAt,value
2022-12-01T00:00:17.917Z,12.99
2022-12-01T00:05:22.180Z,12.91
2022-12-01T00:10:25.908Z,12.79
2022-12-01T00:15:32.248Z,12.61
2022-12-01T00:20:36.335Z,12.35
2022-12-01T00:25:39.912Z,12.12
2022-12-01T00:30:45.097Z,11.97
2022-12-01T00:35:48.660Z,11.76
2022-12-01T00:40:52.261Z,11.60
2022-12-01T00:45:57.829Z,11.29
2022-12-01T00:51:01.436Z,11.19
2022-12-01T00:56:05.250Z,10.96
2022-12-01T01:01:11.406Z,10.82
2022-12-01T01:06:14.320Z,10.59
2022-12-01T01:11:17.926Z,10.50
2022-12-01T01:16:23.385Z,10.45
2022-12-01T01:21:27.625Z,10.34
2022-12-01T01:26:32.393Z,10.14
2022-12-01T01:31:37.650Z,9.94
2022-12-01T01:36:41.211Z,9.94
2022-12-01T01:41:44.783Z,9.63
2022-12-01T01:46:50.062Z,9.75
2022-12-01T01:51:55.021Z,9.80
2022-12-01T01:57:00.803Z,9.88
2022-12-01T02:02:08.384Z,9.70
2022-12-01T02:07:14.355Z,9.87
2022-12-01T02:12:44.568Z,9.56
2022-12-01T02:18:02.489Z,9.47
2022-12-01T02:23:48.262Z,9.30
2022-12-01T02:29:14.167Z,9.15
2022-12-01T02:34:25.165Z,9.38
2022-12-01T02:39:35.070Z,9.76
2022-12-01T02:44:42.677Z,9.78
2022-12-01T02:49:50.277Z,9.75
2022-12-01T02:54:54.688Z,9.70
2022-12-01T02:59:59.805Z,9.71
2022-12-01T03:05:09.134Z,9.70
2022-12-01T03:10:22.358Z,9.80
2022-12-01T03:15:35.602Z,10.09
2022-12-01T03:20:48.109Z,9.86
2022-12-01T03:25:55.134Z,9.76
2022-12-01T03:31:03.191Z,9.92
2022-12-01T03:36:12.432Z,9.80
2022-12-01T03:41:20.825Z,10.09
2022-12-01T03:46:33.817Z,10.08
2022-12-01T03:51:45.811Z,9.98
2022-12-01T03:56:53.580Z,9.92
2022-12-01T04:01:58.347Z,10.06
2022-12-01T04:07:03.761Z,10.17
2022-12-01T04:12:07.760Z,9.81
2022-12-01T04:17:11.294Z,9.91
2022-12-01T04:22:16.557Z,9.97
2022-12-01T04:27:20.829Z,10.27
2022-12-01T04:32:24.382Z,10.55
2022-12-01T04:37:29.560Z,10.84
2022-12-01T04:42:33.258Z,10.91
2022-12-01T04:47:36.836Z,11.04
2022-12-01T04:52:42.045Z,11.13
2022-12-01T04:57:45.584Z,11.11
2022-12-01T05:02:49.131Z,11.14
2022-12-01T05:07:54.428Z,11.27
2022-12-01T05:12:58.059Z,11.30
2022-12-01T05:18:01.814Z,11.22
2022-12-01T05:23:08.181Z,11.01
2022-12-01T05:28:13.318Z,10.96
2022-12-01T05:33:16.933Z,10.88
2022-12-01T05:38:22.301Z,10.65
2022-12-01T05:43:29.482Z,10.53
2022-12-01T05:48:34.310Z,10.67
2022-12-01T05:53:39.780Z,10.83
2022-12-01T05:58:43.380Z,10.77
2022-12-01T06:03:47.147Z,10.91
2022-12-01T06:08:52.396Z,10.99
2022-12-01T06:13:55.905Z,11.12
2022-12-01T06:18:59.493Z,11.00
2022-12-01T06:24:04.954Z,11.06
2022-12-01T06:29:08.564Z,11.06
2022-12-01T06:34:12.405Z,11.19
2022-12-01T06:39:18.731Z,11.21
2022-12-01T06:44:22.505Z,11.26
2022-12-01T06:49:26.097Z,11.24
2022-12-01T06:54:32.218Z,11.07
2022-12-01T06:59:35.810Z,11.16
2022-12-01T07:04:39.824Z,11.15
2022-12-01T07:09:45.010Z,11.23
2022-12-01T07:14:49.002Z,11.23
2022-12-01T07:19:52.577Z,11.31
2022-12-01T07:24:57.820Z,11.34
2022-12-01T07:30:02.074Z,11.35
2022-12-01T07:35:06.095Z,11.40
2022-12-01T07:40:12.856Z,11.42
2022-12-01T07:45:16.609Z,11.23
2022-12-01T07:50:20.151Z,11.31
2022-12-01T07:55:25.350Z,11.26
2022-12-01T08:00:28.893Z,11.34
2022-12-01T08:05:32.541Z,11.36
2022-12-01T08:10:37.933Z,11.41
2022-12-01T08:15:41.602Z,11.44
2022-12-01T08:20:45.163Z,11.49
2022-12-01T08:25:50.363Z,11.42
2022-12-01T08:30:53.954Z,11.42
2022-12-01T08:35:57.541Z,11.40
2022-12-01T08:41:04.270Z,11.37
2022-12-01T08:46:08.230Z,11.44
2022-12-01T08:51:13.511Z,11.37
2022-12-01T08:56:20.977Z,11.50
2022-12-01T09:01:24.856Z,11.44
2022-12-01T09:06:28.801Z,11.29
2022-12-01T09:11:34.077Z,11.13
2022-12-01T09:16:37.828Z,11.10
2022-12-01T09:21:41.760Z,11.05
2022-12-01T09:26:46.917Z,10.98
2022-12-01T09:31:50.500Z,11.01
2022-12-01T09:36:56.670Z,10.99
2022-12-01T09:42:08.994Z,11.00
2022-12-01T09:47:18.096Z,11.04
2022-12-01T09:52:23.850Z,11.19
2022-12-01T09:57:33.488Z,11.18
2022-12-01T10:02:40.949Z,11.27
2022-12-01T10:07:49.376Z,11.29
2022-12-01T10:12:54.943Z,11.27
2022-12-01T10:18:13.756Z,11.26
2022-12-01T10:23:33.904Z,11.23
2022-12-01T10:28:54.230Z,11.28
2022-12-01T10:34:03.764Z,11.23
2022-12-01T10:39:08.115Z,11.31
2022-12-01T10:44:14.024Z,11.19
2022-12-01T10:49:19.664Z,11.23
2022-12-01T10:54:24.242Z,11.25
2022-12-01T10:59:33.379Z,11.16
2022-12-01T11:04:40.902Z,11.26
2022-12-01T11:09:47.637Z,11.32
2022-12-01T11:14:55.633Z,11.31
2022-12-01T11:19:59.566Z,11.23
2022-12-01T11:25:05.685Z,11.10
2022-12-01T11:30:23.711Z,10.96
2022-12-01T11:35:38.563Z,10.93
2022-12-01T11:40:49.028Z,10.99
2022-12-01T11:45:54.443Z,10.89
2022-12-01T11:51:09.027Z,10.76
2022-12-01T11:56:22.137Z,10.79
2022-12-01T12:01:37.928Z,10.86
2022-12-01T12:06:53.224Z,10.85
2022-12-01T12:12:11.680Z,10.78
2022-12-01T12:17:34.950Z,10.81
2022-12-01T12:22:55.215Z,10.85
2022-12-01T12:28:13.810Z,10.84
2022-12-01T12:33:40.174Z,10.83
2022-12-01T12:39:02.520Z,10.77
2022-12-01T12:44:24.431Z,10.65
2022-12-01T12:49:37.677Z,10.78
2022-12-01T12:54:49.926Z,10.82
2022-12-01T12:59:58.412Z,10.78
2022-12-01T13:05:07.673Z,10.80
2022-12-01T13:10:23.813Z,10.83
2022-12-01T13:15:28.195Z,10.85
2022-12-01T13:20:34.030Z,10.85
2022-12-01T13:25:41.740Z,10.81
2022-12-01T13:31:00.217Z,10.76
2022-12-01T13:41:37.244Z,10.80
2022-12-01T13:46:53.921Z,10.80
2022-12-01T13:52:33.192Z,10.85
2022-12-01T13:57:40.590Z,10.83
2022-12-01T14:02:44.549Z,10.81
2022-12-01T14:07:49.551Z,10.80
2022-12-01T14:12:58.365Z,10.76
2022-12-01T14:18:07.262Z,10.79
2022-12-01T14:23:17.511Z,10.83
2022-12-01T14:29:01.528Z,10.80
2022-12-01T14:34:10.379Z,10.82
2022-12-01T14:39:19.481Z,10.83
2022-12-01T14:44:28.163Z,10.83
2022-12-01T14:49:35.303Z,10.64
2022-12-01T14:54:45.647Z,10.82
2022-12-01T15:00:05.520Z,10.73
2022-12-01T15:05:13.356Z,10.70
2022-12-01T15:10:19.560Z,10.77
2022-12-01T15:15:27.663Z,10.71
2022-12-01T15:20:33.956Z,10.84
2022-12-01T15:25:36.818Z,10.89
2022-12-01T15:30:43.597Z,10.97
2022-12-01T15:35:47.344Z,10.90
2022-12-01T15:41:21.020Z,10.94
2022-12-01T15:46:19.271Z,11.00
2022-12-01T15:51:27.944Z,11.09
2022-12-01T15:56:34.257Z,11.08
2022-12-01T16:01:39.931Z,10.76
2022-12-01T16:06:51.831Z,10.34
2022-12-01T16:12:20.007Z,9.90
2022-12-01T16:17:26.012Z,9.92
2022-12-01T16:22:29.641Z,9.91
2022-12-01T16:27:33.348Z,10.01
2022-12-01T16:32:40.290Z,10.05
2022-12-01T16:37:43.839Z,10.09
2022-12-01T16:42:48.019Z,10.15
2022-12-01T16:47:53.230Z,10.25
2022-12-01T16:52:57.552Z,10.30
2022-12-01T16:58:01.159Z,10.31
2022-12-01T17:03:07.403Z,10.32
2022-12-01T17:08:10.295Z,10.34
2022-12-01T17:13:14.548Z,10.21
2022-12-01T17:18:21.966Z,10.30
2022-12-01T17:23:25.534Z,10.35
2022-12-01T17:28:29.289Z,10.37
2022-12-01T17:33:35.247Z,10.40
2022-12-01T17:38:40.241Z,10.36
2022-12-01T17:43:43.915Z,10.36
2022-12-01T17:48:49.093Z,10.39
2022-12-01T17:53:54.150Z,10.37
2022-12-01T17:58:57.679Z,10.47
2022-12-01T18:04:02.893Z,10.54
2022-12-01T18:09:06.800Z,10.53
2022-12-01T18:14:10.344Z,10.51
2022-12-01T18:19:16.577Z,10.56
2022-12-01T18:24:19.363Z,10.53
2022-12-01T18:29:23.163Z,10.59
2022-12-01T18:34:29.506Z,10.55
2022-12-01T18:39:33.159Z,10.58
2022-12-01T18:44:36.735Z,10.56
2022-12-01T18:49:42.605Z,10.60
2022-12-01T18:54:46.179Z,10.62
2022-12-01T18:59:49.722Z,10.73
2022-12-01T19:04:54.897Z,10.78
2022-12-01T19:09:58.471Z,10.76
2022-12-01T19:15:02.067Z,10.89
2022-12-01T19:20:08.421Z,10.93
2022-12-01T19:25:12.037Z,11.00
2022-12-01T19:30:15.779Z,11.14
2022-12-01T19:35:21.188Z,11.08
2022-12-01T19:40:24.765Z,11.21
2022-12-01T19:45:28.324Z,11.70
2022-12-01T19:50:35.612Z,11.63
2022-12-01T19:55:40.399Z,11.51
2022-12-01T20:00:44.057Z,11.60
2022-12-01T20:05:50.182Z,11.65
2022-12-01T20:10:53.783Z,11.67
2022-12-01T20:16:02.727Z,11.70
2022-12-01T20:21:09.940Z,11.68
2022-12-01T20:26:14.939Z,11.87
2022-12-01T20:31:22.725Z,11.92
2022-12-01T20:36:28.545Z,12.28
2022-12-01T20:41:32.202Z,12.63
2022-12-01T20:46:36.639Z,12.54
2022-12-01T20:51:41.980Z,12.23
2022-12-01T20:56:45.652Z,12.19
2022-12-01T21:01:49.247Z,12.33
2022-12-01T21:06:56.375Z,12.36
2022-12-01T21:12:02.934Z,12.26
2022-12-01T21:17:17.310Z,12.35
2022-12-01T21:22:23.495Z,12.25
2022-12-01T21:27:26.355Z,12.15
2022-12-01T21:32:34.022Z,12.11
2022-12-01T21:37:39.307Z,12.26
2022-12-01T21:42:42.947Z,12.32
2022-12-01T21:47:46.545Z,12.40
2022-12-01T21:52:52.106Z,12.29
2022-12-01T21:57:55.840Z,12.37
2022-12-01T22:03:22.536Z,12.37
2022-12-01T22:08:29.212Z,12.36
2022-12-01T22:13:41.631Z,12.37
2022-12-01T22:18:50.053Z,12.32
2022-12-01T22:24:01.677Z,12.30
2022-12-01T22:29:21.432Z,12.28
2022-12-01T22:34:25.090Z,12.33
2022-12-01T22:39:32.336Z,12.31
2022-12-01T22:44:35.990Z,12.20
2022-12-01T22:49:39.545Z,12.09
2022-12-01T22:54:47.709Z,12.02
2022-12-01T22:59:51.888Z,12.00
2022-12-01T23:04:57.891Z,11.95
2022-12-01T23:10:13.136Z,11.89
2022-12-01T23:15:27.810Z,11.82
2022-12-01T23:20:33.651Z,11.79
2022-12-01T23:25:39.920Z,11.72
2022-12-01T23:30:44.882Z,11.62
2022-12-01T23:35:52.580Z,11.57
2022-12-01T23:41:01.066Z,11.45
2022-12-01T23:46:06.755Z,11.26
2022-12-01T23:51:20.607Z,11.20
2022-12-01T23:56:27.723Z,11.16
